Wind EuroAirport

Messzeit Windrichtung Windgeschwindigkeit [Knoten] Rückenwind Nordpiste [Knoten] METAR
2019-12-06 06:00 S 180° 4 - LFSB 060500Z 18004KT 4000 BR FEW004 M02/M02 Q1022 TEMPO BKN003
2019-12-06 05:30 S 180° 7 - LFSB 060430Z 18007KT 3000 BR BKN004 M02/M02 Q1022 TEMPO NSC
2019-12-06 05:00 S 170° 6 - LFSB 060400Z 17006KT 3000 BR OVC003 M01/M02 Q1022 NOSIG
2019-12-06 04:30 S 170° 5 - LFSB 060330Z 17005KT 3000 BR OVC003 M01/M02 Q1022 NOSIG
2019-12-06 04:00 S 170°
(140°–200°)
5 - LFSB 060300Z AUTO 17005KT 140V200 3800 BR OVC003 M01/M02 Q1022 TEMPO 1200 BECMG NSC
2019-12-06 03:30 S 170°
(140°–210°)
5 - LFSB 060230Z AUTO 17005KT 140V210 4300 BR BKN003 BKN017 M02/M02 Q1023 TEMPO 1200 BECMG NSC
2019-12-06 03:00 S 170° 8 - LFSB 060200Z AUTO 17008KT 4700 BR FEW004 M01/M02 Q1023 TEMPO 1200
2019-12-06 02:30 S 180° 6 - LFSB 060130Z AUTO 18006KT 5000 BR FEW005 M01/M02 Q1023 TEMPO 1200
2019-12-06 02:00 S 180° 6 - LFSB 060100Z AUTO 18006KT 5000 BR NSC M01/M02 Q1023 TEMPO 1200
2019-12-06 01:30 S 190° 5 - LFSB 060030Z AUTO 19005KT 5000 BR NSC M01/M02 Q1022 TEMPO 1200
2019-12-06 01:00 S 190° 4 - LFSB 060000Z AUTO 19004KT 5000 BR NSC M02/M02 Q1023 TEMPO 1200
2019-12-06 00:30 S 180° 5 - LFSB 052330Z AUTO 18005KT 5000 BR NSC M01/M01 Q1023 TEMPO 1200
2019-12-06 00:00 S 160°
(120°–180°)
5 - LFSB 052300Z 16005KT 120V180 5000 BR NSC M00/M01 Q1023 NOSIG
2019-12-05 23:30 S 160° 4 - LFSB 052230Z 16004KT 4500 BR NSC M01/M02 Q1023 NOSIG
2019-12-05 23:00 S 200° 4 - LFSB 052200Z 20004KT 4500 BR NSC M01/M01 Q1023 NOSIG
2019-12-05 22:30 S 180° 6 - LFSB 052130Z 18006KT 4500 BR NSC M00/M01 Q1023 NOSIG
2019-12-05 22:00 S 180° 5 - LFSB 052100Z 18005KT 4500 BR NSC M00/M01 Q1023 NOSIG
2019-12-05 21:30 S 180° 5 - LFSB 052030Z 18005KT 5000 BR NSC M00/M01 Q1023 NOSIG
2019-12-05 21:00 S 170° 5 - LFSB 052000Z 17005KT 5000 BR NSC M00/M01 Q1023 NOSIG
2019-12-05 20:30 S 160° 6 - LFSB 051930Z 16006KT 5000 BR NSC M01/M01 Q1023 NOSIG
2019-12-05 20:00 S 170° 5 - LFSB 051900Z 17005KT 6000 NSC 00/M01 Q1024 NOSIG
2019-12-05 19:30 S 170° 6 - LFSB 051830Z 17006KT 6000 NSC 00/M01 Q1023 NOSIG
2019-12-05 19:00 S 190° 4 - LFSB 051800Z 19004KT 6000 NSC 01/M01 Q1023 NOSIG
2019-12-05 18:30 S 180° 5 - LFSB 051730Z 18005KT 6000 NSC 01/M00 Q1023 NOSIG
2019-12-05 18:00 S 170° 5 - LFSB 051700Z 17005KT 7000 NSC 01/M00 Q1023 NOSIG
2019-12-05 17:30 S 170° 8 - LFSB 051630Z 17008KT 8000 NSC 02/M00 Q1023 NOSIG
2019-12-05 17:00 S 190° 5 - LFSB 051600Z 19005KT 8000 NSC 02/00 Q1023 NOSIG
2019-12-05 16:30 S 170° 7 - LFSB 051530Z 17007KT 9000 NSC 04/00 Q1023 NOSIG
2019-12-05 16:00 S 170° 6 - LFSB 051500Z 17006KT 9000 NSC 05/01 Q1022 NOSIG
2019-12-05 15:30 S 170° 6 - LFSB 051430Z 17006KT 8000 NSC 06/01 Q1022 NOSIG
2019-12-05 15:00 S 160° 6 - LFSB 051400Z 16006KT CAVOK 06/01 Q1022 NOSIG
2019-12-05 14:30 SO 150° 5 - LFSB 051330Z 15005KT CAVOK 06/01 Q1022 NOSIG
2019-12-05 14:00 SO 130°
(90°–150°)
4 - LFSB 051300Z 13004KT 090V150 CAVOK 06/00 Q1022 NOSIG
2019-12-05 13:30 SO 140°
(120°–180°)
5 - LFSB 051230Z 14005KT 120V180 CAVOK 06/00 Q1022 NOSIG
2019-12-05 13:00 S 160° 7 - LFSB 051200Z 16007KT CAVOK 05/00 Q1022 NOSIG
2019-12-05 12:30 SO 130° 5 - LFSB 051130Z 13005KT 8000 NSC 05/01 Q1023 NOSIG
2019-12-05 12:00 SO 140° 6 - LFSB 051100Z 14006KT 6000 NSC 04/01 Q1023 NOSIG
2019-12-05 11:30 SO 140° 6 - LFSB 051030Z 14006KT 6000 NSC 03/00 Q1023 NOSIG
2019-12-05 11:00 SO 130° 5 - LFSB 051000Z 13005KT 5000 BR NSC 03/M00 Q1023 NOSIG
2019-12-05 10:30 SO 140° 7 - LFSB 050930Z 14007KT 5000 BR NSC 02/M00 Q1023 NOSIG
2019-12-05 10:00 S 170° 4 - LFSB 050900Z 17004KT 5000 BR NSC 00/M01 Q1023 NOSIG
2019-12-05 09:30 S 170° 5 - LFSB 050830Z 17005KT 5000 BR NSC M00/M02 Q1023 NOSIG
2019-12-05 09:00 S 190° 5 - LFSB 050800Z 19005KT 4000 BR NSC M01/M02 Q1023 NOSIG
2019-12-05 08:30 S 180° 4 - LFSB 050730Z 18004KT 4000 BR NSC M02/M03 Q1022 NOSIG
2019-12-05 08:00 S 180° 6 - LFSB 050700Z 18006KT 6000 NSC M02/M03 Q1022 NOSIG
2019-12-05 07:30 S 170° 5 - LFSB 050630Z 17005KT 6000 NSC M03/M04 Q1022 NOSIG
2019-12-05 07:00 S 180° 5 - LFSB 050600Z 18005KT 5000 BR NSC M02/M03 Q1022 BECMG 6000 NSW